sensor_id;sensor_type;location;lat;lon;timestamp;pressure;altitude;pressure_sealevel;temperature;humidity
75312;BME280;63906;55.686;37.532;2022-11-15T00:04:38;100152.38;;;0.58;52.34
75312;BME280;63906;55.686;37.532;2022-11-15T00:09:39;100170.13;;;0.75;51.76
75312;BME280;63906;55.686;37.532;2022-11-15T00:14:39;100161.41;;;0.76;51.19
75312;BME280;63906;55.686;37.532;2022-11-15T00:19:40;100171.75;;;0.76;51.37
75312;BME280;63906;55.686;37.532;2022-11-15T00:24:40;100131.88;;;0.54;50.96
75312;BME280;63906;55.686;37.532;2022-11-15T00:29:41;100147.66;;;0.51;51.13
75312;BME280;63906;55.686;37.532;2022-11-15T00:34:44;100155.22;;;0.66;50.57
75312;BME280;63906;55.686;37.532;2022-11-15T00:39:45;100154.50;;;0.52;51.04
75312;BME280;63906;55.686;37.532;2022-11-15T00:44:45;100129.75;;;0.48;50.39
75312;BME280;63906;55.686;37.532;2022-11-15T00:49:46;100142.47;;;0.51;51.33
75312;BME280;63906;55.686;37.532;2022-11-15T00:54:46;100110.66;;;0.38;50.02
75312;BME280;63906;55.686;37.532;2022-11-15T00:59:47;100116.50;;;0.29;50.12
75312;BME280;63906;55.686;37.532;2022-11-15T01:04:47;100114.16;;;0.37;49.11
75312;BME280;63906;55.686;37.532;2022-11-15T01:09:48;100108.22;;;0.24;49.73
75312;BME280;63906;55.686;37.532;2022-11-15T01:14:49;100102.47;;;0.20;49.97
75312;BME280;63906;55.686;37.532;2022-11-15T01:19:50;100098.13;;;0.21;50.83
75312;BME280;63906;55.686;37.532;2022-11-15T01:24:50;100115.09;;;0.25;50.59
75312;BME280;63906;55.686;37.532;2022-11-15T01:29:51;100085.38;;;0.07;51.65
75312;BME280;63906;55.686;37.532;2022-11-15T01:34:51;100076.84;;;0.05;51.06
75312;BME280;63906;55.686;37.532;2022-11-15T01:39:52;100094.38;;;0.25;51.20
75312;BME280;63906;55.686;37.532;2022-11-15T01:44:52;100103.94;;;0.12;51.83
75312;BME280;63906;55.686;37.532;2022-11-15T01:50:04;100086.78;;;0.11;52.04
75312;BME280;63906;55.686;37.532;2022-11-15T01:55:13;100091.94;;;0.11;52.01
75312;BME280;63906;55.686;37.532;2022-11-15T02:00:15;100072.38;;;-0.05;51.65
75312;BME280;63906;55.686;37.532;2022-11-15T02:05:16;100101.81;;;0.06;52.20
75312;BME280;63906;55.686;37.532;2022-11-15T02:10:19;100095.72;;;0.07;52.30
75312;BME280;63906;55.686;37.532;2022-11-15T02:15:20;100097.81;;;0.02;52.72
75312;BME280;63906;55.686;37.532;2022-11-15T02:31:24;100083.81;;;0.04;52.11
75312;BME280;63906;55.686;37.532;2022-11-15T02:37:03;100079.75;;;-0.11;52.61
75312;BME280;63906;55.686;37.532;2022-11-15T02:42:08;100081.84;;;-0.16;53.74
75312;BME280;63906;55.686;37.532;2022-11-15T02:47:32;100060.25;;;-0.28;54.05
75312;BME280;63906;55.686;37.532;2022-11-15T02:52:34;100072.81;;;-0.11;53.64
75312;BME280;63906;55.686;37.532;2022-11-15T03:08:52;100040.06;;;-0.23;53.32
75312;BME280;63906;55.686;37.532;2022-11-15T03:14:17;100070.22;;;-0.11;53.68
75312;BME280;63906;55.686;37.532;2022-11-15T03:19:44;100052.31;;;-0.14;53.51
75312;BME280;63906;55.686;37.532;2022-11-15T03:24:47;100029.38;;;-0.18;54.09
75312;BME280;63906;55.686;37.532;2022-11-15T03:29:54;100027.13;;;-0.23;53.14
75312;BME280;63906;55.686;37.532;2022-11-15T03:40:03;100050.16;;;-0.20;52.86
75312;BME280;63906;55.686;37.532;2022-11-15T03:45:21;100024.91;;;-0.40;53.00
75312;BME280;63906;55.686;37.532;2022-11-15T03:50:24;100041.00;;;-0.24;52.49
75312;BME280;63906;55.686;37.532;2022-11-15T03:55:25;100028.66;;;-0.44;53.92
75312;BME280;63906;55.686;37.532;2022-11-15T04:00:26;100015.19;;;-0.37;53.23
75312;BME280;63906;55.686;37.532;2022-11-15T04:05:26;100017.44;;;-0.32;53.52
75312;BME280;63906;55.686;37.532;2022-11-15T04:10:27;100010.56;;;-0.44;53.75
75312;BME280;63906;55.686;37.532;2022-11-15T04:15:27;99996.97;;;-0.35;53.07
75312;BME280;63906;55.686;37.532;2022-11-15T04:20:30;100006.25;;;-0.33;52.91
75312;BME280;63906;55.686;37.532;2022-11-15T04:25:51;100024.66;;;-0.24;53.09
75312;BME280;63906;55.686;37.532;2022-11-15T04:31:11;100006.81;;;-0.40;53.42
75312;BME280;63906;55.686;37.532;2022-11-15T04:36:30;100023.22;;;-0.29;54.40
75312;BME280;63906;55.686;37.532;2022-11-15T04:42:08;99998.34;;;-0.42;53.31
75312;BME280;63906;55.686;37.532;2022-11-15T04:47:27;99987.19;;;-0.43;53.94
75312;BME280;63906;55.686;37.532;2022-11-15T04:52:29;100000.38;;;-0.35;54.62
75312;BME280;63906;55.686;37.532;2022-11-15T04:57:30;99993.38;;;-0.21;53.57
75312;BME280;63906;55.686;37.532;2022-11-15T05:02:30;99997.13;;;-0.25;54.08
75312;BME280;63906;55.686;37.532;2022-11-15T05:07:51;99973.44;;;-0.43;54.91
75312;BME280;63906;55.686;37.532;2022-11-15T05:12:51;100000.66;;;-0.27;55.01
75312;BME280;63906;55.686;37.532;2022-11-15T05:17:57;99979.69;;;-0.35;55.17
75312;BME280;63906;55.686;37.532;2022-11-15T05:22:58;99996.28;;;-0.26;55.59
75312;BME280;63906;55.686;37.532;2022-11-15T05:27:59;99977.47;;;-0.28;55.20
75312;BME280;63906;55.686;37.532;2022-11-15T05:32:59;99968.53;;;-0.35;54.29
75312;BME280;63906;55.686;37.532;2022-11-15T05:38:00;99985.06;;;-0.14;54.40
75312;BME280;63906;55.686;37.532;2022-11-15T05:43:02;99990.00;;;-0.11;55.99
75312;BME280;63906;55.686;37.532;2022-11-15T05:48:06;99956.97;;;-0.18;54.17
75312;BME280;63906;55.686;37.532;2022-11-15T05:53:08;99979.72;;;0.12;54.66
75312;BME280;63906;55.686;37.532;2022-11-15T05:58:10;99971.13;;;0.00;53.83
75312;BME280;63906;55.686;37.532;2022-11-15T06:03:11;99971.59;;;0.05;54.90
75312;BME280;63906;55.686;37.532;2022-11-15T06:08:11;99965.50;;;0.17;55.23
75312;BME280;63906;55.686;37.532;2022-11-15T06:13:12;99950.81;;;0.29;54.27
75312;BME280;63906;55.686;37.532;2022-11-15T06:18:12;99957.16;;;0.36;54.01
75312;BME280;63906;55.686;37.532;2022-11-15T06:23:13;99929.16;;;0.19;53.69
75312;BME280;63906;55.686;37.532;2022-11-15T06:28:13;99928.78;;;0.12;53.95
75312;BME280;63906;55.686;37.532;2022-11-15T06:33:14;99937.03;;;0.17;53.96
75312;BME280;63906;55.686;37.532;2022-11-15T06:38:14;99927.38;;;0.08;55.13
75312;BME280;63906;55.686;37.532;2022-11-15T06:43:15;99907.88;;;0.26;54.59
75312;BME280;63906;55.686;37.532;2022-11-15T06:48:15;99915.63;;;0.26;53.12
75312;BME280;63906;55.686;37.532;2022-11-15T06:53:16;99901.72;;;0.16;53.74
75312;BME280;63906;55.686;37.532;2022-11-15T06:58:17;99904.91;;;0.09;54.77
75312;BME280;63906;55.686;37.532;2022-11-15T07:03:18;99900.66;;;0.30;53.81
75312;BME280;63906;55.686;37.532;2022-11-15T07:08:18;99885.84;;;0.43;53.28
75312;BME280;63906;55.686;37.532;2022-11-15T07:13:19;99894.31;;;0.45;53.98
75312;BME280;63906;55.686;37.532;2022-11-15T07:18:20;99901.63;;;0.63;55.09
75312;BME280;63906;55.686;37.532;2022-11-15T07:23:20;99864.28;;;0.43;54.39
75312;BME280;63906;55.686;37.532;2022-11-15T07:28:21;99891.25;;;0.63;54.22
75312;BME280;63906;55.686;37.532;2022-11-15T07:33:21;99888.97;;;0.80;52.09
75312;BME280;63906;55.686;37.532;2022-11-15T07:38:22;99822.31;;;0.39;52.94
75312;BME280;63906;55.686;37.532;2022-11-15T07:43:22;99879.69;;;0.78;53.58
75312;BME280;63906;55.686;37.532;2022-11-15T07:48:23;99837.56;;;0.65;53.30
75312;BME280;63906;55.686;37.532;2022-11-15T07:53:23;99828.94;;;0.75;52.51
75312;BME280;63906;55.686;37.532;2022-11-15T07:58:24;99864.69;;;0.93;53.38
75312;BME280;63906;55.686;37.532;2022-11-15T08:03:24;99830.91;;;0.83;52.19
75312;BME280;63906;55.686;37.532;2022-11-15T08:08:25;99859.56;;;1.14;51.98
75312;BME280;63906;55.686;37.532;2022-11-15T08:13:26;99852.50;;;1.37;54.07
75312;BME280;63906;55.686;37.532;2022-11-15T08:18:26;99856.00;;;1.47;52.71
75312;BME280;63906;55.686;37.532;2022-11-15T08:23:27;99815.13;;;1.60;52.99
75312;BME280;63906;55.686;37.532;2022-11-15T08:28:28;99818.28;;;1.43;52.04
75312;BME280;63906;55.686;37.532;2022-11-15T08:33:29;99821.25;;;1.59;51.98
75312;BME280;63906;55.686;37.532;2022-11-15T08:38:30;99805.56;;;1.60;51.18
75312;BME280;63906;55.686;37.532;2022-11-15T08:43:31;99820.81;;;1.54;53.43
75312;BME280;63906;55.686;37.532;2022-11-15T08:48:31;99812.53;;;1.60;52.28
75312;BME280;63906;55.686;37.532;2022-11-15T08:53:33;99822.91;;;1.81;51.58
75312;BME280;63906;55.686;37.532;2022-11-15T08:58:34;99785.50;;;1.42;52.45
75312;BME280;63906;55.686;37.532;2022-11-15T09:03:35;99800.19;;;1.52;51.97
75312;BME280;63906;55.686;37.532;2022-11-15T09:08:36;99817.41;;;1.53;51.67
75312;BME280;63906;55.686;37.532;2022-11-15T09:13:37;99790.47;;;1.45;53.20
75312;BME280;63906;55.686;37.532;2022-11-15T09:18:38;99794.94;;;1.64;52.57
75312;BME280;63906;55.686;37.532;2022-11-15T09:23:38;99772.16;;;1.46;52.83
75312;BME280;63906;55.686;37.532;2022-11-15T09:28:39;99776.97;;;1.30;52.77
75312;BME280;63906;55.686;37.532;2022-11-15T09:33:45;99773.19;;;1.34;52.84
75312;BME280;63906;55.686;37.532;2022-11-15T09:38:46;99764.72;;;1.32;53.37
75312;BME280;63906;55.686;37.532;2022-11-15T09:48:55;99762.63;;;1.05;51.70
75312;BME280;63906;55.686;37.532;2022-11-15T09:54:05;99769.50;;;1.57;53.30
75312;BME280;63906;55.686;37.532;2022-11-15T10:04:47;99749.69;;;1.26;52.63
75312;BME280;63906;55.686;37.532;2022-11-15T10:09:59;99762.81;;;1.34;53.49
75312;BME280;63906;55.686;37.532;2022-11-15T10:15:06;99733.97;;;1.27;53.98
75312;BME280;63906;55.686;37.532;2022-11-15T10:20:22;99753.94;;;1.37;53.40
75312;BME280;63906;55.686;37.532;2022-11-15T10:25:24;99712.66;;;1.24;51.70
75312;BME280;63906;55.686;37.532;2022-11-15T10:30:34;99736.75;;;1.56;53.40
75312;BME280;63906;55.686;37.532;2022-11-15T10:35:36;99705.22;;;1.30;53.15
75312;BME280;63906;55.686;37.532;2022-11-15T10:40:38;99677.75;;;1.28;54.67
75312;BME280;63906;55.686;37.532;2022-11-15T10:45:39;99670.31;;;1.14;54.45
75312;BME280;63906;55.686;37.532;2022-11-15T10:50:43;99657.38;;;1.14;54.57
75312;BME280;63906;55.686;37.532;2022-11-15T10:55:47;99666.72;;;1.26;55.29
75312;BME280;63906;55.686;37.532;2022-11-15T11:00:48;99688.28;;;1.36;55.12
75312;BME280;63906;55.686;37.532;2022-11-15T11:06:03;99681.78;;;1.42;56.30
75312;BME280;63906;55.686;37.532;2022-11-15T11:11:04;99673.56;;;1.37;54.93
75312;BME280;63906;55.686;37.532;2022-11-15T11:21:21;99638.00;;;1.18;54.37
75312;BME280;63906;55.686;37.532;2022-11-15T11:27:07;99669.75;;;1.31;55.69
75312;BME280;63906;55.686;37.532;2022-11-15T11:47:47;99635.00;;;1.13;56.30
75312;BME280;63906;55.686;37.532;2022-11-15T11:53:03;99630.94;;;0.99;57.35
75312;BME280;63906;55.686;37.532;2022-11-15T11:58:15;99624.41;;;0.53;58.12
75312;BME280;63906;55.686;37.532;2022-11-15T12:04:50;99640.75;;;0.53;59.24
75312;BME280;63906;55.686;37.532;2022-11-15T12:09:35;99618.94;;;0.35;59.51
75312;BME280;63906;55.686;37.532;2022-11-15T12:14:50;99636.56;;;0.41;60.07
75312;BME280;63906;55.686;37.532;2022-11-15T12:19:56;99613.13;;;0.22;60.89
75312;BME280;63906;55.686;37.532;2022-11-15T12:25:05;99608.91;;;0.21;62.18
75312;BME280;63906;55.686;37.532;2022-11-15T12:30:15;99605.97;;;0.14;62.35
75312;BME280;63906;55.686;37.532;2022-11-15T12:35:56;99593.22;;;0.22;61.77
75312;BME280;63906;55.686;37.532;2022-11-15T12:41:14;99607.59;;;0.26;62.89
75312;BME280;63906;55.686;37.532;2022-11-15T12:46:20;99578.03;;;-0.35;65.79
75312;BME280;63906;55.686;37.532;2022-11-15T12:56:42;99554.59;;;-0.66;69.25
75312;BME280;63906;55.686;37.532;2022-11-15T13:11:52;99561.16;;;-0.62;69.29
75312;BME280;63906;55.686;37.532;2022-11-15T13:16:58;99532.16;;;-0.76;70.12
75312;BME280;63906;55.686;37.532;2022-11-15T13:21:59;99538.00;;;-0.63;70.03
75312;BME280;63906;55.686;37.532;2022-11-15T13:27:19;99529.69;;;-0.67;69.24
75312;BME280;63906;55.686;37.532;2022-11-15T13:32:21;99544.84;;;-0.73;71.20
75312;BME280;63906;55.686;37.532;2022-11-15T13:42:22;99492.41;;;-1.30;73.92
75312;BME280;63906;55.686;37.532;2022-11-15T13:47:26;99500.59;;;-1.25;73.84
75312;BME280;63906;55.686;37.532;2022-11-15T13:52:35;99520.91;;;-1.20;75.00
75312;BME280;63906;55.686;37.532;2022-11-15T13:57:39;99525.75;;;-1.04;73.93
75312;BME280;63906;55.686;37.532;2022-11-15T14:02:41;99514.81;;;-0.97;73.43
75312;BME280;63906;55.686;37.532;2022-11-15T14:13:27;99490.16;;;-1.12;74.78
75312;BME280;63906;55.686;37.532;2022-11-15T14:18:50;99515.28;;;-1.14;74.96
75312;BME280;63906;55.686;37.532;2022-11-15T14:23:50;99506.13;;;-1.07;75.25
75312;BME280;63906;55.686;37.532;2022-11-15T14:28:51;99490.94;;;-0.89;74.53
75312;BME280;63906;55.686;37.532;2022-11-15T14:33:52;99466.81;;;-1.11;74.71
75312;BME280;63906;55.686;37.532;2022-11-15T14:38:52;99490.53;;;-1.05;75.21
75312;BME280;63906;55.686;37.532;2022-11-15T14:43:54;99483.00;;;-0.97;75.53
75312;BME280;63906;55.686;37.532;2022-11-15T14:48:54;99464.78;;;-0.96;76.51
75312;BME280;63906;55.686;37.532;2022-11-15T14:53:55;99440.13;;;-1.00;75.16
75312;BME280;63906;55.686;37.532;2022-11-15T14:58:56;99458.06;;;-0.87;75.48
75312;BME280;63906;55.686;37.532;2022-11-15T15:03:56;99435.13;;;-1.24;75.54
75312;BME280;63906;55.686;37.532;2022-11-15T15:08:58;99443.66;;;-1.12;75.06
75312;BME280;63906;55.686;37.532;2022-11-15T15:13:59;99460.22;;;-0.92;75.13
75312;BME280;63906;55.686;37.532;2022-11-15T15:19:01;99420.06;;;-1.08;75.45
75312;BME280;63906;55.686;37.532;2022-11-15T15:24:01;99420.31;;;-1.11;74.84
75312;BME280;63906;55.686;37.532;2022-11-15T15:29:02;99417.16;;;-1.14;75.81
75312;BME280;63906;55.686;37.532;2022-11-15T15:34:04;99411.28;;;-1.05;76.56
75312;BME280;63906;55.686;37.532;2022-11-15T15:39:04;99414.19;;;-0.98;76.04
75312;BME280;63906;55.686;37.532;2022-11-15T15:44:05;99409.03;;;-0.98;75.80
75312;BME280;63906;55.686;37.532;2022-11-15T15:49:09;99401.38;;;-1.00;76.61
75312;BME280;63906;55.686;37.532;2022-11-15T15:54:09;99401.13;;;-0.86;75.98
75312;BME280;63906;55.686;37.532;2022-11-15T15:59:10;99395.66;;;-1.03;76.27
75312;BME280;63906;55.686;37.532;2022-11-15T16:04:11;99369.56;;;-1.00;76.16
75312;BME280;63906;55.686;37.532;2022-11-15T16:09:16;99368.34;;;-1.17;76.78
75312;BME280;63906;55.686;37.532;2022-11-15T16:14:16;99386.34;;;-0.95;76.65
75312;BME280;63906;55.686;37.532;2022-11-15T16:19:17;99359.78;;;-1.18;76.70
75312;BME280;63906;55.686;37.532;2022-11-15T16:24:18;99354.81;;;-1.10;76.32
75312;BME280;63906;55.686;37.532;2022-11-15T16:29:19;99370.16;;;-0.97;76.78
75312;BME280;63906;55.686;37.532;2022-11-15T16:34:19;99375.72;;;-0.80;76.65
75312;BME280;63906;55.686;37.532;2022-11-15T16:39:20;99370.94;;;-0.85;77.30
75312;BME280;63906;55.686;37.532;2022-11-15T16:44:22;99350.78;;;-1.02;77.50
75312;BME280;63906;55.686;37.532;2022-11-15T16:49:24;99327.53;;;-1.02;77.77
75312;BME280;63906;55.686;37.532;2022-11-15T16:54:24;99362.72;;;-0.90;77.76
75312;BME280;63906;55.686;37.532;2022-11-15T16:59:25;99332.50;;;-1.11;78.20
75312;BME280;63906;55.686;37.532;2022-11-15T17:04:25;99337.28;;;-1.06;78.58
75312;BME280;63906;55.686;37.532;2022-11-15T17:09:31;99308.56;;;-1.13;77.67
75312;BME280;63906;55.686;37.532;2022-11-15T17:14:33;99318.72;;;-1.00;77.80
75312;BME280;63906;55.686;37.532;2022-11-15T17:19:33;99330.13;;;-1.02;78.07
75312;BME280;63906;55.686;37.532;2022-11-15T17:24:34;99298.38;;;-1.25;77.75
75312;BME280;63906;55.686;37.532;2022-11-15T17:29:35;99341.56;;;-0.84;77.91
75312;BME280;63906;55.686;37.532;2022-11-15T17:34:35;99331.53;;;-0.98;78.07
75312;BME280;63906;55.686;37.532;2022-11-15T17:39:36;99314.81;;;-0.94;78.11
75312;BME280;63906;55.686;37.532;2022-11-15T17:44:36;99334.81;;;-0.96;78.04
75312;BME280;63906;55.686;37.532;2022-11-15T17:49:37;99337.84;;;-0.70;77.67
75312;BME280;63906;55.686;37.532;2022-11-15T17:54:39;99336.03;;;-0.79;78.03
75312;BME280;63906;55.686;37.532;2022-11-15T17:59:40;99327.81;;;-0.85;78.24
75312;BME280;63906;55.686;37.532;2022-11-15T18:04:40;99301.03;;;-1.04;78.50
75312;BME280;63906;55.686;37.532;2022-11-15T18:09:41;99320.44;;;-0.89;77.97
75312;BME280;63906;55.686;37.532;2022-11-15T18:14:43;99319.78;;;-1.02;77.73
75312;BME280;63906;55.686;37.532;2022-11-15T18:19:43;99315.28;;;-0.89;77.75
75312;BME280;63906;55.686;37.532;2022-11-15T18:24:44;99294.09;;;-0.83;78.61
75312;BME280;63906;55.686;37.532;2022-11-15T18:29:46;99290.78;;;-0.74;77.02
75312;BME280;63906;55.686;37.532;2022-11-15T18:34:46;99291.97;;;-0.78;77.79
75312;BME280;63906;55.686;37.532;2022-11-15T18:39:47;99298.34;;;-0.61;77.71
75312;BME280;63906;55.686;37.532;2022-11-15T18:44:47;99297.75;;;-0.44;77.08
75312;BME280;63906;55.686;37.532;2022-11-15T18:49:48;99302.31;;;-0.78;77.14
75312;BME280;63906;55.686;37.532;2022-11-15T18:54:48;99309.22;;;-0.58;77.18
75312;BME280;63906;55.686;37.532;2022-11-15T18:59:49;99283.22;;;-0.66;76.72
75312;BME280;63906;55.686;37.532;2022-11-15T19:04:49;99274.31;;;-0.73;77.22
75312;BME280;63906;55.686;37.532;2022-11-15T19:09:50;99285.72;;;-0.55;77.95
75312;BME280;63906;55.686;37.532;2022-11-15T19:14:50;99262.09;;;-0.71;76.89
75312;BME280;63906;55.686;37.532;2022-11-15T19:19:51;99249.69;;;-0.98;76.61
75312;BME280;63906;55.686;37.532;2022-11-15T19:24:51;99247.75;;;-1.05;77.15
75312;BME280;63906;55.686;37.532;2022-11-15T19:29:52;99258.69;;;-0.92;76.27
75312;BME280;63906;55.686;37.532;2022-11-15T19:34:53;99272.25;;;-0.79;77.69
75312;BME280;63906;55.686;37.532;2022-11-15T19:39:53;99259.63;;;-0.72;77.38
75312;BME280;63906;55.686;37.532;2022-11-15T19:44:54;99264.28;;;-0.87;76.11
75312;BME280;63906;55.686;37.532;2022-11-15T19:49:54;99268.38;;;-0.64;77.63
75312;BME280;63906;55.686;37.532;2022-11-15T19:54:55;99259.94;;;-0.66;77.72
75312;BME280;63906;55.686;37.532;2022-11-15T19:59:55;99259.94;;;-0.66;77.51
75312;BME280;63906;55.686;37.532;2022-11-15T20:04:56;99233.09;;;-0.95;76.64
75312;BME280;63906;55.686;37.532;2022-11-15T20:09:56;99262.59;;;-0.77;75.97
75312;BME280;63906;55.686;37.532;2022-11-15T20:14:57;99235.88;;;-0.87;77.06
75312;BME280;63906;55.686;37.532;2022-11-15T20:19:58;99224.59;;;-1.07;77.48
75312;BME280;63906;55.686;37.532;2022-11-15T20:25:00;99232.38;;;-0.86;76.90
75312;BME280;63906;55.686;37.532;2022-11-15T20:30:00;99223.91;;;-0.88;77.01
75312;BME280;63906;55.686;37.532;2022-11-15T20:35:01;99244.88;;;-0.82;76.27
75312;BME280;63906;55.686;37.532;2022-11-15T20:40:02;99244.44;;;-0.66;76.91
75312;BME280;63906;55.686;37.532;2022-11-15T20:45:02;99243.06;;;-0.70;76.19
75312;BME280;63906;55.686;37.532;2022-11-15T20:50:03;99241.94;;;-0.77;75.69
75312;BME280;63906;55.686;37.532;2022-11-15T20:55:04;99245.00;;;-0.83;76.09
75312;BME280;63906;55.686;37.532;2022-11-15T21:00:06;99236.75;;;-0.77;75.95
75312;BME280;63906;55.686;37.532;2022-11-15T21:05:07;99211.44;;;-0.83;75.12
75312;BME280;63906;55.686;37.532;2022-11-15T21:10:11;99235.31;;;-1.12;76.39
75312;BME280;63906;55.686;37.532;2022-11-15T21:15:32;99209.34;;;-1.31;76.65
75312;BME280;63906;55.686;37.532;2022-11-15T21:20:32;99239.59;;;-1.01;75.60
75312;BME280;63906;55.686;37.532;2022-11-15T21:25:33;99220.63;;;-0.90;77.70
75312;BME280;63906;55.686;37.532;2022-11-15T21:30:34;99229.78;;;-0.86;75.76
75312;BME280;63906;55.686;37.532;2022-11-15T21:35:34;99239.47;;;-0.78;76.53
75312;BME280;63906;55.686;37.532;2022-11-15T21:40:35;99190.03;;;-1.16;75.70
75312;BME280;63906;55.686;37.532;2022-11-15T21:45:36;99224.88;;;-0.59;77.44
75312;BME280;63906;55.686;37.532;2022-11-15T21:50:37;99233.28;;;-0.66;77.36
75312;BME280;63906;55.686;37.532;2022-11-15T21:55:38;99226.13;;;-0.84;77.50
75312;BME280;63906;55.686;37.532;2022-11-15T22:00:38;99198.47;;;-0.62;78.26
75312;BME280;63906;55.686;37.532;2022-11-15T22:05:58;99227.47;;;-0.28;77.76
75312;BME280;63906;55.686;37.532;2022-11-15T22:10:58;99231.81;;;-0.29;77.78
75312;BME280;63906;55.686;37.532;2022-11-15T22:15:59;99212.19;;;-0.41;77.31
75312;BME280;63906;55.686;37.532;2022-11-15T22:21:09;99234.19;;;-0.46;76.68
75312;BME280;63906;55.686;37.532;2022-11-15T22:26:15;99227.91;;;-0.53;76.37
75312;BME280;63906;55.686;37.532;2022-11-15T22:31:15;99211.44;;;-0.52;78.38
75312;BME280;63906;55.686;37.532;2022-11-15T22:36:16;99224.38;;;-0.22;77.40
75312;BME280;63906;55.686;37.532;2022-11-15T22:41:16;99225.34;;;-0.44;77.04
75312;BME280;63906;55.686;37.532;2022-11-15T22:46:17;99205.81;;;-0.67;76.53
75312;BME280;63906;55.686;37.532;2022-11-15T22:51:17;99231.69;;;-0.58;78.07
75312;BME280;63906;55.686;37.532;2022-11-15T22:56:18;99223.34;;;-0.40;78.85
75312;BME280;63906;55.686;37.532;2022-11-15T23:01:20;99207.91;;;-0.51;78.80
75312;BME280;63906;55.686;37.532;2022-11-15T23:06:23;99220.00;;;-0.62;76.58
75312;BME280;63906;55.686;37.532;2022-11-15T23:11:24;99197.31;;;-0.48;78.57
75312;BME280;63906;55.686;37.532;2022-11-15T23:16:43;99193.34;;;-0.52;77.95
75312;BME280;63906;55.686;37.532;2022-11-15T23:21:45;99215.94;;;-0.24;77.47
75312;BME280;63906;55.686;37.532;2022-11-15T23:27:05;99213.94;;;-0.72;76.76
75312;BME280;63906;55.686;37.532;2022-11-15T23:32:07;99201.53;;;-0.78;76.15
75312;BME280;63906;55.686;37.532;2022-11-15T23:37:26;99182.75;;;-1.01;75.94
75312;BME280;63906;55.686;37.532;2022-11-15T23:42:27;99195.09;;;-0.84;77.68
75312;BME280;63906;55.686;37.532;2022-11-15T23:47:27;99213.44;;;-0.66;76.54
75312;BME280;63906;55.686;37.532;2022-11-15T23:52:28;99196.69;;;-0.92;75.41
75312;BME280;63906;55.686;37.532;2022-11-15T23:57:28;99211.97;;;-0.59;76.43
